Share

Antofagasta, Chile

Cerro Moreno International (SCFA) Elev 394 ft | 23.45 °S, 70.44 °W | Change Station

Current weather conditions updated 7 minutes ago

Scattered Clouds
Scattered Clouds
64 °F
Feels Like 64 °F
N
12
Wind Variable Wind from South
Sunrise 6:56 AM
Sunset 6:26 PM
Moon Waning Gibbous

Today is forecast to be nearly the same temperature as yesterday.

Pressure 29.95 in
Visibility 6.2 miles
Clouds Scattered Clouds 2000 ft
Dew Point 54 °F
Humidity 68%
Rainfall 0.00 in
Snow Depth Not available.
UV 9 out of 16
Pollen Not available.
Air Quality Not available.
Flu Activity Not available.
METAR SCFA 171700Z 19010KT 9999 SCT020 18/12 Q1014 NOSIG

More Conditions Fewer Conditions

Pressure 29.95 in
Visibility 6.2 miles
Clouds Scattered Clouds 2000 ft
Dew Point 54 °F
Humidity 68%
Rainfall 0.00 in
Snow Depth Not available.
UV 9 out of 16
Pollen Not available.
Air Quality Not available.
Flu Activity Not available.
METAR SCFA 171700Z 19010KT 9999 SCT020 18/12 Q1014 NOSIG

More Conditions Fewer Conditions

10-Day Forecast

Almanac

Astronomy

Apr. 17, 2014 Rise Set
Actual Time 6:56 AM CLT 6:26 PM CLT
Civil Twilight 6:33 AM CLT 6:49 PM CLT
Nautical Twilight 6:06 AM CLT 7:15 PM CLT
Astronomical Twilight 5:40 AM CLT 7:41 PM CLT
Moon 8:26 PM CLT 9:02 AM CLT
Length of Visible Light 12h 15m
Length of Day
11h 30m
Tomorrow will be 1m 14s shorter.
Waning Gibbous, 93% of the Moon is Illuminated
Today
Waning Gibbous
Apr 22
Last Quarter
Apr 29
New
May 6
First Quarter
May 14
Full

Today's Extremes

Country Highs Country Lows

Community

  • New Day
    New Day
  • Lake Michigan Sunrise
    Lake Michigan Sunrise
  • sunset from izmir, narlıdere
    sunset from izmir, narlıdere
  • oregon cherry
    oregon cherry
  • Sunset over the Bay
    Sunset over the Bay

WunderPhotos

Upload Photos

1,702,073 photos uploaded!

Nearby

Snow Depth

Not available.

Coastal Water Temperatures

Place Temperature
No Stations Reporting

Earthquake Activity

City Distance Mag. Time & Date
No recent earthquake activity has been reported nearby.
Minimum magnitude displayed is 2.5.

Nearby Weather Stations

There are no personal weather stations in this area.

What do you think?

We're not finished. Please let us know what you like, what you don't like, and what you are still missing.